Star Dieppe — LEQZ3 — position and weather

sailwx.info

Track history (hours):
 
Tides and Currents Weather Stations Pressure Air Temp Water Temp Dewpoint Dewpoint Depression Visibility Wind Speed Wind Dir Waves Ship Positions

Star Dieppe

Last reported at 2014-Sep-30 03:00 UTC. Time now 2014-Oct-01 16:20 UTC.
Position N 41°00' E 143°42'.

Length 182 m; draft 7.9 m.

Type: Cargo ship. MMSI: 257439000.

Wind from 280 at 13 knots

Waves 2.0 meters (7 feet), 6 second period

Barometer 1010.0 mb
Air temperature 20.0 ° C
Visibility: greater than 10.8 NM
Dewpoint 18.0 ° C
Water temperature 21.0 ° C

Date/timePositionNaut miles runAvg speedWind from/ knotsBaromVisibWave heightAir tempDewpointWater temp
2014-Sep-30 03:00N 41°00' E 143°42'1514.9 280 / 131010.010.8 2.020.018.021.0
2014-Sep-30 02:00N 40°54' E 143°24'   030 / 131010.010.8 2.021.020.021.0
2014-Sep-25 14:06N 31°06' E 122°29'5 7.6
2014-Sep-25 13:23N 31°06' E 122°22'2812.3
2014-Sep-25 11:05N 31°16' E 121°52'814.4
2014-Sep-25 10:32N 31°19' E 121°43'1111.7
2014-Sep-25 09:33N 31°25' E 121°31'9 8.9
2014-Sep-25 08:33N 31°30' E 121°23'0 0.2
2014-Sep-25 07:32N 31°30' E 121°23'0 0.0
2014-Sep-25 06:26N 31°30' E 121°23'0 0.0
2014-Sep-25 05:19N 31°30' E 121°23'0 0.0
2014-Sep-25 04:12N 31°30' E 121°23'0 0.0
2014-Sep-25 03:24N 31°30' E 121°23'0 0.0
2014-Sep-25 02:29N 31°30' E 121°23'0 0.0
2014-Sep-25 00:16N 31°30' E 121°23'0 0.0
2014-Sep-24 23:27N 31°30' E 121°23'0 0.0
2014-Sep-24 22:26N 31°30' E 121°23'0 0.0
2014-Sep-24 19:28N 31°30' E 121°23'0 0.0
2014-Sep-24 17:17N 31°30' E 121°23'0 0.0
2014-Sep-24 16:20N 31°30' E 121°23'0 0.0
2014-Sep-24 15:31N 31°30' E 121°23'0 0.0
2014-Sep-24 14:21N 31°30' E 121°23'0 0.0
2014-Sep-24 12:32N 31°30' E 121°23'0 0.0
2014-Sep-24 11:32N 31°30' E 121°23'0 0.0
2014-Sep-24 09:24N 31°30' E 121°23'0 0.0
2014-Sep-24 08:30N 31°30' E 121°23'0 0.0
2014-Sep-24 07:29N 31°30' E 121°23'17 5.2
2014-Sep-24 04:06N 31°42' E 121°08'8 8.7
2014-Sep-24 03:08N 31°47' E 120°60'6 9.8
2014-Sep-24 02:32N 31°50' E 120°54'1110.7
2014-Sep-24 01:31N 31°60' E 120°49'3 3.5
2014-Sep-24 00:33N 32°00' E 120°45'0 0.0
2014-Sep-23 23:32N 32°00' E 120°45'0 0.0
2014-Sep-23 22:31N 32°00' E 120°45'0 0.0
2014-Sep-23 21:33N 32°00' E 120°45'0 0.0
2014-Sep-23 20:30N 32°00' E 120°45'0 0.0
2014-Sep-23 19:32N 32°00' E 120°45'0 0.1
2014-Sep-23 18:29N 32°00' E 120°45'0 0.1
2014-Sep-23 17:27N 32°00' E 120°45'0 0.1
2014-Sep-23 16:22N 32°00' E 120°45'0 0.0
2014-Sep-23 15:33N 32°00' E 120°45'0 0.0
2014-Sep-23 14:33N 32°00' E 120°45'0 0.0
2014-Sep-23 13:29N 32°00' E 120°45'0 0.0
2014-Sep-23 12:31N 32°00' E 120°45'0 0.0
2014-Sep-23 11:33N 32°00' E 120°45'0 0.0
2014-Sep-23 10:32N 32°00' E 120°45'0 0.1
2014-Sep-23 09:28N 32°00' E 120°45'0 0.0
2014-Sep-23 08:33N 32°00' E 120°45'0 0.1
2014-Sep-23 07:20N 32°00' E 120°45'0 0.2
2014-Sep-23 06:33N 32°00' E 120°45'4 4.0
2014-Sep-23 05:33N 31°60' E 120°40'0 0.2
2014-Sep-23 04:33N 31°60' E 120°40'0 0.0
2014-Sep-23 03:30N 31°60' E 120°40'0 0.0
2014-Sep-23 02:33N 31°60' E 120°40'0 0.0
2014-Sep-23 01:32N 31°60' E 120°40'0 0.0
2014-Sep-23 00:19N 31°60' E 120°40'0 0.0
2014-Sep-22 23:33N 31°60' E 120°40'0 0.0
2014-Sep-22 22:32N 31°60' E 120°40'0 0.0
2014-Sep-22 21:32N 31°60' E 120°40'0 0.0
2014-Sep-22 20:28N 31°60' E 120°40'0 0.0
2014-Sep-22 19:28N 31°60' E 120°40'0 0.0
2014-Sep-22 18:30N 31°60' E 120°40'0 0.0
2014-Sep-22 17:29N 31°60' E 120°40'0 0.0
2014-Sep-22 16:32N 31°60' E 120°40'0 0.0
2014-Sep-22 15:31N 31°60' E 120°40'0 0.0
2014-Sep-22 14:24N 31°60' E 120°40'0 0.0
2014-Sep-22 13:29N 31°60' E 120°40'0 0.0
2014-Sep-22 12:19N 31°60' E 120°40'0 0.0
2014-Sep-22 11:31N 31°60' E 120°40'0 0.0
2014-Sep-22 10:33N 31°60' E 120°40'0 0.0
2014-Sep-22 09:29N 31°60' E 120°40'0 0.0
2014-Sep-22 08:17N 31°60' E 120°40'0 0.0
2014-Sep-22 07:32N 31°60' E 120°40'0 0.0
2014-Sep-22 06:28N 31°60' E 120°40'0 0.0
2014-Sep-22 05:33N 31°60' E 120°40'0 0.0
2014-Sep-22 04:32N 31°60' E 120°40'0 0.0
2014-Sep-22 03:31N 31°60' E 120°40'0 0.0
2014-Sep-22 02:33N 31°60' E 120°40'0 0.0
2014-Sep-22 01:18N 31°60' E 120°40'0 0.0
2014-Sep-22 00:29N 31°60' E 120°40'0 0.0
2014-Sep-21 23:28N 31°60' E 120°40'0 0.0
2014-Sep-21 22:33N 31°60' E 120°40'0 0.0
2014-Sep-21 21:32N 31°60' E 120°40'0 0.0
2014-Sep-21 20:31N 31°60' E 120°40'0 0.0
2014-Sep-21 19:28N 31°60' E 120°40'0 0.0
2014-Sep-21 18:33N 31°60' E 120°40'0 0.0
2014-Sep-21 17:32N 31°60' E 120°40'0 0.0
2014-Sep-21 16:31N 31°60' E 120°40'0 0.0
2014-Sep-21 15:33N 31°60' E 120°40'0 0.0
2014-Sep-21 14:32N 31°60' E 120°40'0 0.0
2014-Sep-21 13:31N 31°60' E 120°40'0 0.0
2014-Sep-21 12:27N 31°60' E 120°40'0 0.0
2014-Sep-21 11:30N 31°60' E 120°40'0 0.0
2014-Sep-21 10:28N 31°60' E 120°40'0 0.0
2014-Sep-21 09:31N 31°60' E 120°40'0 0.0
2014-Sep-21 08:33N 31°60' E 120°40'0 0.0
2014-Sep-21 07:32N 31°60' E 120°40'0 0.0
2014-Sep-21 06:31N 31°60' E 120°40'0 0.0
2014-Sep-21 05:18N 31°60' E 120°40'0 0.0
2014-Sep-21 04:29N 31°60' E 120°40'0 0.0
2014-Sep-21 03:31N 31°60' E 120°40'6 6.1
2014-Sep-21 02:33N 32°01' E 120°47'10 9.7
2014-Sep-21 01:33N 31°53' E 120°53'9 9.1
2014-Sep-21 00:33N 31°47' E 121°01'1010.0
2014-Sep-20 23:33N 31°41' E 121°11'8 7.9
2014-Sep-20 22:33N 31°36' E 121°18'0 0.1
2014-Sep-20 21:11N 31°36' E 121°19'0 0.0
2014-Sep-20 20:04N 31°36' E 121°19'0 0.0
2014-Sep-20 19:18N 31°36' E 121°19'0 0.0
2014-Sep-20 17:23N 31°36' E 121°18'6 7.5
2014-Sep-20 16:33N 31°31' E 121°23'9 9.2
2014-Sep-20 15:33N 31°25' E 121°31'1110.5
2014-Sep-20 14:33N 31°20' E 121°41'1413.3
2014-Sep-20 13:32N 31°10' E 121°52'2210.9
2014-Sep-20 11:29N 31°03' E 122°17'9 9.6
2014-Sep-20 10:34N 31°01' E 122°27'  
Track history (hours):
 
Tides and Currents Weather Stations Pressure Air Temp Water Temp Dewpoint Dewpoint Depression Visibility Wind Speed Wind Dir Waves Ship Positions

Star Dieppe

Last reported at 2014-Sep-30 03:00 UTC. Time now 2014-Oct-01 16:20 UTC.
Position N 41°00' E 143°42'.

Length 182 m; draft 7.9 m.

Type: Cargo ship. MMSI: 257439000.

Wind from 280 at 13 knots

Waves 2.0 meters (7 feet), 6 second period

Barometer 1010.0 mb
Air temperature 20.0 ° C
Visibility: greater than 10.8 NM
Dewpoint 18.0 ° C
Water temperature 21.0 ° C

Date/timePositionNaut miles runAvg speedWind from/ knotsBaromVisibWave heightAir tempDewpointWater temp
2014-Sep-30 03:00N 41°00' E 143°42'1514.9 280 / 131010.010.8 2.020.018.021.0
2014-Sep-30 02:00N 40°54' E 143°24'   030 / 131010.010.8 2.021.020.021.0
2014-Sep-25 14:06N 31°06' E 122°29'5 7.6
2014-Sep-25 13:23N 31°06' E 122°22'2812.3
2014-Sep-25 11:05N 31°16' E 121°52'814.4
2014-Sep-25 10:32N 31°19' E 121°43'1111.7
2014-Sep-25 09:33N 31°25' E 121°31'9 8.9
2014-Sep-25 08:33N 31°30' E 121°23'0 0.2
2014-Sep-25 07:32N 31°30' E 121°23'0 0.0
2014-Sep-25 06:26N 31°30' E 121°23'0 0.0
2014-Sep-25 05:19N 31°30' E 121°23'0 0.0
2014-Sep-25 04:12N 31°30' E 121°23'0 0.0
2014-Sep-25 03:24N 31°30' E 121°23'0 0.0
2014-Sep-25 02:29N 31°30' E 121°23'0 0.0
2014-Sep-25 00:16N 31°30' E 121°23'0 0.0
2014-Sep-24 23:27N 31°30' E 121°23'0 0.0
2014-Sep-24 22:26N 31°30' E 121°23'0 0.0
2014-Sep-24 19:28N 31°30' E 121°23'0 0.0
2014-Sep-24 17:17N 31°30' E 121°23'0 0.0
2014-Sep-24 16:20N 31°30' E 121°23'0 0.0
2014-Sep-24 15:31N 31°30' E 121°23'0 0.0
2014-Sep-24 14:21N 31°30' E 121°23'0 0.0
2014-Sep-24 12:32N 31°30' E 121°23'0 0.0
2014-Sep-24 11:32N 31°30' E 121°23'0 0.0
2014-Sep-24 09:24N 31°30' E 121°23'0 0.0
2014-Sep-24 08:30N 31°30' E 121°23'0 0.0
2014-Sep-24 07:29N 31°30' E 121°23'17 5.2
2014-Sep-24 04:06N 31°42' E 121°08'8 8.7
2014-Sep-24 03:08N 31°47' E 120°60'6 9.8
2014-Sep-24 02:32N 31°50' E 120°54'1110.7
2014-Sep-24 01:31N 31°60' E 120°49'3 3.5
2014-Sep-24 00:33N 32°00' E 120°45'0 0.0
2014-Sep-23 23:32N 32°00' E 120°45'0 0.0
2014-Sep-23 22:31N 32°00' E 120°45'0 0.0
2014-Sep-23 21:33N 32°00' E 120°45'0 0.0
2014-Sep-23 20:30N 32°00' E 120°45'0 0.0
2014-Sep-23 19:32N 32°00' E 120°45'0 0.1
2014-Sep-23 18:29N 32°00' E 120°45'0 0.1
2014-Sep-23 17:27N 32°00' E 120°45'0 0.1
2014-Sep-23 16:22N 32°00' E 120°45'0 0.0
2014-Sep-23 15:33N 32°00' E 120°45'0 0.0
2014-Sep-23 14:33N 32°00' E 120°45'0 0.0
2014-Sep-23 13:29N 32°00' E 120°45'0 0.0
2014-Sep-23 12:31N 32°00' E 120°45'0 0.0
2014-Sep-23 11:33N 32°00' E 120°45'0 0.0
2014-Sep-23 10:32N 32°00' E 120°45'0 0.1
2014-Sep-23 09:28N 32°00' E 120°45'0 0.0
2014-Sep-23 08:33N 32°00' E 120°45'0 0.1
2014-Sep-23 07:20N 32°00' E 120°45'0 0.2
2014-Sep-23 06:33N 32°00' E 120°45'4 4.0
2014-Sep-23 05:33N 31°60' E 120°40'0 0.2
2014-Sep-23 04:33N 31°60' E 120°40'0 0.0
2014-Sep-23 03:30N 31°60' E 120°40'0 0.0
2014-Sep-23 02:33N 31°60' E 120°40'0 0.0
2014-Sep-23 01:32N 31°60' E 120°40'0 0.0
2014-Sep-23 00:19N 31°60' E 120°40'0 0.0
2014-Sep-22 23:33N 31°60' E 120°40'0 0.0
2014-Sep-22 22:32N 31°60' E 120°40'0 0.0
2014-Sep-22 21:32N 31°60' E 120°40'0 0.0
2014-Sep-22 20:28N 31°60' E 120°40'0 0.0
2014-Sep-22 19:28N 31°60' E 120°40'0 0.0
2014-Sep-22 18:30N 31°60' E 120°40'0 0.0
2014-Sep-22 17:29N 31°60' E 120°40'0 0.0
2014-Sep-22 16:32N 31°60' E 120°40'0 0.0
2014-Sep-22 15:31N 31°60' E 120°40'0 0.0
2014-Sep-22 14:24N 31°60' E 120°40'0 0.0
2014-Sep-22 13:29N 31°60' E 120°40'0 0.0
2014-Sep-22 12:19N 31°60' E 120°40'0 0.0
2014-Sep-22 11:31N 31°60' E 120°40'0 0.0
2014-Sep-22 10:33N 31°60' E 120°40'0 0.0
2014-Sep-22 09:29N 31°60' E 120°40'0 0.0
2014-Sep-22 08:17N 31°60' E 120°40'0 0.0
2014-Sep-22 07:32N 31°60' E 120°40'0 0.0
2014-Sep-22 06:28N 31°60' E 120°40'0 0.0
2014-Sep-22 05:33N 31°60' E 120°40'0 0.0
2014-Sep-22 04:32N 31°60' E 120°40'0 0.0
2014-Sep-22 03:31N 31°60' E 120°40'0 0.0
2014-Sep-22 02:33N 31°60' E 120°40'0 0.0
2014-Sep-22 01:18N 31°60' E 120°40'0 0.0
2014-Sep-22 00:29N 31°60' E 120°40'0 0.0
2014-Sep-21 23:28N 31°60' E 120°40'0 0.0
2014-Sep-21 22:33N 31°60' E 120°40'0 0.0
2014-Sep-21 21:32N 31°60' E 120°40'0 0.0
2014-Sep-21 20:31N 31°60' E 120°40'0 0.0
2014-Sep-21 19:28N 31°60' E 120°40'0 0.0
2014-Sep-21 18:33N 31°60' E 120°40'0 0.0
2014-Sep-21 17:32N 31°60' E 120°40'0 0.0
2014-Sep-21 16:31N 31°60' E 120°40'0 0.0
2014-Sep-21 15:33N 31°60' E 120°40'0 0.0
2014-Sep-21 14:32N 31°60' E 120°40'0 0.0
2014-Sep-21 13:31N 31°60' E 120°40'0 0.0
2014-Sep-21 12:27N 31°60' E 120°40'0 0.0
2014-Sep-21 11:30N 31°60' E 120°40'0 0.0
2014-Sep-21 10:28N 31°60' E 120°40'0 0.0
2014-Sep-21 09:31N 31°60' E 120°40'0 0.0
2014-Sep-21 08:33N 31°60' E 120°40'0 0.0
2014-Sep-21 07:32N 31°60' E 120°40'0 0.0
2014-Sep-21 06:31N 31°60' E 120°40'0 0.0
2014-Sep-21 05:18N 31°60' E 120°40'0 0.0
2014-Sep-21 04:29N 31°60' E 120°40'0 0.0
2014-Sep-21 03:31N 31°60' E 120°40'6 6.1
2014-Sep-21 02:33N 32°01' E 120°47'10 9.7
2014-Sep-21 01:33N 31°53' E 120°53'9 9.1
2014-Sep-21 00:33N 31°47' E 121°01'1010.0
2014-Sep-20 23:33N 31°41' E 121°11'8 7.9
2014-Sep-20 22:33N 31°36' E 121°18'0 0.1
2014-Sep-20 21:11N 31°36' E 121°19'0 0.0
2014-Sep-20 20:04N 31°36' E 121°19'0 0.0
2014-Sep-20 19:18N 31°36' E 121°19'0 0.0
2014-Sep-20 17:23N 31°36' E 121°18'6 7.5
2014-Sep-20 16:33N 31°31' E 121°23'9 9.2
2014-Sep-20 15:33N 31°25' E 121°31'1110.5
2014-Sep-20 14:33N 31°20' E 121°41'1413.3
2014-Sep-20 13:32N 31°10' E 121°52'2210.9
2014-Sep-20 11:29N 31°03' E 122°17'9 9.6
2014-Sep-20 10:34N 31°01' E 122°27'  

Dump ship's entire track history